createdAt,value
2022-10-22T00:00:56.761Z,4.47
2022-10-22T00:03:24.527Z,4.80
2022-10-22T00:05:52.222Z,4.35
2022-10-22T00:08:20.121Z,4.57
2022-10-22T00:10:47.988Z,5.38
2022-10-22T00:13:17.492Z,4.75
2022-10-22T00:15:45.222Z,5.07
2022-10-22T00:18:12.926Z,5.43
2022-10-22T00:20:40.720Z,4.65
2022-10-22T00:23:08.453Z,4.82
2022-10-22T00:25:37.102Z,5.32
2022-10-22T00:28:05.116Z,5.00
2022-10-22T00:30:34.193Z,5.53
2022-10-22T00:33:01.901Z,5.07
2022-10-22T00:35:29.662Z,4.90
2022-10-22T00:37:57.395Z,4.30
2022-10-22T00:40:25.111Z,5.10
2022-10-22T00:42:52.922Z,4.93
2022-10-22T00:45:23.881Z,4.90
2022-10-22T00:48:00.546Z,4.68
2022-10-22T00:50:32.380Z,4.50
2022-10-22T00:53:02.310Z,4.53
2022-10-22T00:55:31.322Z,4.80
2022-10-22T00:57:59.498Z,4.80
2022-10-22T01:00:27.635Z,4.70
2022-10-22T01:02:58.853Z,5.15
2022-10-22T01:05:30.376Z,4.65
2022-10-22T01:07:58.274Z,4.82
2022-10-22T01:10:44.170Z,4.90
2022-10-22T01:13:23.526Z,4.72
2022-10-22T01:16:00.354Z,5.07
2022-10-22T01:18:37.962Z,4.60
2022-10-22T01:21:15.175Z,4.90
2022-10-22T01:24:09.578Z,4.50
2022-10-22T01:26:51.449Z,4.40
2022-10-22T01:29:26.753Z,4.90
2022-10-22T01:31:57.932Z,4.25
2022-10-22T01:34:28.224Z,4.82
2022-10-22T01:36:57.649Z,4.38
2022-10-22T01:39:28.224Z,4.43
2022-10-22T01:41:56.579Z,4.55
2022-10-22T01:44:30.734Z,4.43
2022-10-22T01:47:08.373Z,4.40
2022-10-22T01:49:52.042Z,4.53
2022-10-22T01:52:30.150Z,4.40
2022-10-22T01:55:08.808Z,4.90
2022-10-22T01:57:44.909Z,4.32
2022-10-22T02:00:18.187Z,4.60
2022-10-22T02:02:53.919Z,4.55
2022-10-22T02:05:26.233Z,4.97
2022-10-22T02:07:56.462Z,4.43
2022-10-22T02:10:25.661Z,4.95
2022-10-22T02:12:55.719Z,4.45
2022-10-22T02:15:28.370Z,4.80
2022-10-22T02:17:58.742Z,4.57
2022-10-22T02:20:29.289Z,4.75
2022-10-22T02:22:57.824Z,5.05
2022-10-22T02:25:29.349Z,4.28
2022-10-22T02:28:05.174Z,4.32
2022-10-22T02:30:36.788Z,4.45
2022-10-22T02:33:09.769Z,4.88
2022-10-22T02:35:39.838Z,4.63
2022-10-22T02:38:08.739Z,5.60
2022-10-22T02:40:36.595Z,5.10
2022-10-22T02:43:06.311Z,4.72
2022-10-22T02:45:35.864Z,4.70
2022-10-22T02:48:03.912Z,4.55
2022-10-22T02:50:31.718Z,4.95
2022-10-22T02:52:59.413Z,4.65
2022-10-22T02:55:27.175Z,4.68
2022-10-22T02:57:54.916Z,4.70
2022-10-22T03:00:23.127Z,4.80
2022-10-22T03:02:52.215Z,4.50
2022-10-22T03:05:19.968Z,4.60
2022-10-22T03:07:47.723Z,3.97
2022-10-22T03:10:15.610Z,4.70
2022-10-22T03:12:43.300Z,4.57
2022-10-22T03:15:11.609Z,4.30
2022-10-22T03:17:39.490Z,4.43
2022-10-22T03:20:09.870Z,4.47
2022-10-22T03:22:40.507Z,4.47
2022-10-22T03:25:12.219Z,4.63
2022-10-22T03:27:42.276Z,4.72
2022-10-22T03:30:11.611Z,4.13
2022-10-22T03:32:39.336Z,4.53
2022-10-22T03:35:09.166Z,4.50
2022-10-22T03:37:38.232Z,4.85
2022-10-22T03:40:08.537Z,4.60
2022-10-22T03:42:36.554Z,4.53
2022-10-22T03:45:05.117Z,4.78
2022-10-22T03:47:32.886Z,4.68
2022-10-22T03:50:00.598Z,4.55
2022-10-22T03:52:29.727Z,4.50
2022-10-22T03:54:57.698Z,4.82
2022-10-22T03:57:25.470Z,4.95
2022-10-22T03:59:53.181Z,5.00
2022-10-22T04:02:21.630Z,4.28
2022-10-22T04:04:49.370Z,4.97
2022-10-22T04:07:17.088Z,4.90
2022-10-22T04:09:46.182Z,4.95
2022-10-22T04:12:13.893Z,4.47
2022-10-22T04:14:41.631Z,4.85
2022-10-22T04:17:09.401Z,4.97
2022-10-22T04:19:37.185Z,4.95
2022-10-22T04:22:04.892Z,4.53
2022-10-22T04:24:33.420Z,4.50
2022-10-22T04:27:02.467Z,5.40
2022-10-22T04:29:30.181Z,5.07
2022-10-22T04:31:57.893Z,4.78
2022-10-22T04:34:28.584Z,5.03
2022-10-22T04:36:56.590Z,4.80
2022-10-22T04:39:24.368Z,4.97
2022-10-22T04:41:52.098Z,4.70
2022-10-22T04:44:21.131Z,5.03
2022-10-22T04:46:48.998Z,4.80
2022-10-22T04:49:16.761Z,4.95
2022-10-22T04:51:44.488Z,4.50
2022-10-22T04:54:12.242Z,4.93
2022-10-22T04:56:40.913Z,5.07
2022-10-22T04:59:10.155Z,4.97
2022-10-22T05:01:42.843Z,4.85
2022-10-22T05:04:13.473Z,4.45
2022-10-22T05:06:41.235Z,4.82
2022-10-22T05:09:13.823Z,4.57
2022-10-22T05:11:45.503Z,4.78
2022-10-22T05:14:14.020Z,5.20
2022-10-22T05:16:43.150Z,5.38
2022-10-22T05:19:17.860Z,4.82
2022-10-22T05:21:45.767Z,5.18
2022-10-22T05:24:14.144Z,4.70
2022-10-22T05:26:42.122Z,4.60
2022-10-22T05:29:09.857Z,4.53
2022-10-22T05:31:38.831Z,4.78
2022-10-22T05:34:07.954Z,4.90
2022-10-22T05:36:35.658Z,4.72
2022-10-22T05:39:03.670Z,5.07
2022-10-22T05:41:31.869Z,5.30
2022-10-22T05:44:00.926Z,4.90
2022-10-22T05:46:30.816Z,4.63
2022-10-22T05:49:00.107Z,4.50
2022-10-22T05:51:31.898Z,4.63
2022-10-22T05:54:01.431Z,4.55
2022-10-22T05:56:31.824Z,4.50
2022-10-22T05:59:00.314Z,4.50
2022-10-22T06:01:30.469Z,4.72
2022-10-22T06:03:59.572Z,4.97
2022-10-22T06:06:32.948Z,4.80
2022-10-22T06:09:03.368Z,5.13
2022-10-22T06:11:34.266Z,4.57
2022-10-22T06:14:03.571Z,4.43
2022-10-22T06:16:31.954Z,5.20
2022-10-22T06:19:01.785Z,4.50
2022-10-22T06:21:32.134Z,4.50
2022-10-22T06:24:01.405Z,4.63
2022-10-22T06:26:29.814Z,4.47
2022-10-22T06:28:58.125Z,4.70
2022-10-22T06:31:27.411Z,4.20
2022-10-22T06:33:55.445Z,4.38
2022-10-22T06:36:25.041Z,4.38
2022-10-22T06:38:55.696Z,4.53
2022-10-22T06:41:27.148Z,4.43
2022-10-22T06:43:58.219Z,4.38
2022-10-22T06:46:26.759Z,4.28
2022-10-22T06:48:56.433Z,4.82
2022-10-22T06:51:24.571Z,4.53
2022-10-22T06:53:52.293Z,4.43
2022-10-22T06:56:23.023Z,4.55
2022-10-22T06:58:51.187Z,3.80
2022-10-22T07:01:21.370Z,4.30
2022-10-22T07:03:51.509Z,4.03
2022-10-22T07:06:20.467Z,3.95
2022-10-22T07:08:48.374Z,4.25
2022-10-22T07:11:18.247Z,3.85
2022-10-22T07:13:47.641Z,4.32
2022-10-22T07:16:16.410Z,3.83
2022-10-22T07:18:45.077Z,4.40
2022-10-22T07:21:14.437Z,3.90
2022-10-22T07:23:42.523Z,4.00
2022-10-22T07:26:12.786Z,4.07
2022-10-22T07:28:41.201Z,3.50
2022-10-22T07:31:12.689Z,3.78
2022-10-22T07:33:41.162Z,3.50
2022-10-22T07:36:12.020Z,3.33
2022-10-22T07:38:39.777Z,3.70
2022-10-22T07:41:07.565Z,3.65
2022-10-22T07:43:35.487Z,3.70
2022-10-22T07:46:03.366Z,3.10
2022-10-22T07:48:32.465Z,2.97
2022-10-22T07:51:00.243Z,3.00
2022-10-22T07:53:28.064Z,2.85
2022-10-22T07:55:56.738Z,2.92
2022-10-22T07:58:25.244Z,2.72
2022-10-22T08:00:56.522Z,2.53
2022-10-22T08:03:24.481Z,2.55
2022-10-22T08:05:54.817Z,2.55
2022-10-22T08:08:25.868Z,2.90
2022-10-22T08:10:58.577Z,2.60
2022-10-22T08:13:27.425Z,2.70
2022-10-22T08:15:57.499Z,2.40
2022-10-22T08:18:25.661Z,2.60
2022-10-22T08:20:55.019Z,2.47
2022-10-22T08:23:26.025Z,2.70
2022-10-22T08:25:56.880Z,2.63
2022-10-22T08:28:24.780Z,2.58
2022-10-22T08:30:52.765Z,2.22
2022-10-22T08:33:20.784Z,2.45
2022-10-22T08:35:50.322Z,2.10
2022-10-22T08:38:20.284Z,2.35
2022-10-22T08:40:51.158Z,2.55
2022-10-22T08:43:59.234Z,2.90
2022-10-22T08:46:40.073Z,2.17
2022-10-22T08:49:18.408Z,2.72
2022-10-22T08:51:46.387Z,2.50
2022-10-22T08:54:27.520Z,2.22
2022-10-22T08:57:17.325Z,2.17
2022-10-22T08:59:48.823Z,2.10
2022-10-22T09:02:29.118Z,2.17
2022-10-22T09:05:10.036Z,1.98
2022-10-22T09:07:42.922Z,2.50
2022-10-22T09:10:12.881Z,2.00
2022-10-22T09:12:40.786Z,2.22
2022-10-22T09:15:14.294Z,2.33
2022-10-22T09:17:54.168Z,2.08
2022-10-22T09:20:29.745Z,2.38
2022-10-22T09:23:06.221Z,2.30
2022-10-22T09:25:37.887Z,2.40
2022-10-22T09:28:05.955Z,2.22
2022-10-22T09:30:37.875Z,2.53
2022-10-22T09:33:14.814Z,2.50
2022-10-22T09:38:17.722Z,2.00
2022-10-22T09:40:49.788Z,2.03
2022-10-22T09:43:18.134Z,2.03
2022-10-22T09:45:47.276Z,2.33
2022-10-22T09:48:26.401Z,1.98
2022-10-22T09:51:00.232Z,2.15
2022-10-22T09:53:31.585Z,2.30
2022-10-22T09:56:02.628Z,2.25
2022-10-22T10:01:00.309Z,2.53
2022-10-22T10:03:29.781Z,2.10
2022-10-22T10:06:03.273Z,2.47
2022-10-22T10:08:34.411Z,1.90
2022-10-22T10:11:11.869Z,2.17
2022-10-22T10:13:48.459Z,2.45
2022-10-22T10:16:32.906Z,2.10
2022-10-22T10:19:14.773Z,2.10
2022-10-22T10:21:50.449Z,2.20
2022-10-22T10:24:23.498Z,2.42
2022-10-22T10:26:59.516Z,2.03
2022-10-22T10:35:04.723Z,1.88
2022-10-22T10:37:41.709Z,2.03
2022-10-22T10:40:24.020Z,1.92
2022-10-22T10:43:01.135Z,1.95
2022-10-22T10:45:38.082Z,2.08
2022-10-22T10:50:52.193Z,1.60
2022-10-22T10:53:35.621Z,1.63
2022-10-22T10:56:15.732Z,1.73
2022-10-22T10:58:53.606Z,1.80
2022-10-22T11:01:28.642Z,1.73
2022-10-22T11:04:18.766Z,1.70
2022-10-22T11:06:47.628Z,1.60
2022-10-22T11:09:26.785Z,1.60
2022-10-22T11:11:59.250Z,1.63
2022-10-22T11:14:33.628Z,1.80
2022-10-22T11:17:07.149Z,2.33
2022-10-22T11:19:50.654Z,1.67
2022-10-22T11:22:27.029Z,1.73
2022-10-22T11:25:01.124Z,1.63
2022-10-22T11:27:37.103Z,1.75
2022-10-22T11:30:12.903Z,1.50
2022-10-22T11:32:42.879Z,1.95
2022-10-22T11:35:17.092Z,1.60
2022-10-22T11:37:47.827Z,1.58
2022-10-22T11:40:19.770Z,1.98
2022-10-22T11:42:51.057Z,1.63
2022-10-22T11:45:31.641Z,2.03
2022-10-22T11:48:05.895Z,1.70
2022-10-22T11:50:48.075Z,1.40
2022-10-22T11:53:21.185Z,1.55
2022-10-22T11:55:51.519Z,1.60
2022-10-22T11:58:43.741Z,1.70
2022-10-22T12:01:28.346Z,1.50
2022-10-22T12:04:18.852Z,3.35
2022-10-22T12:07:01.343Z,2.15
2022-10-22T12:09:32.764Z,2.22
2022-10-22T12:12:13.241Z,1.73
2022-10-22T12:14:53.592Z,1.67
2022-10-22T12:17:23.609Z,1.42
2022-10-22T12:20:02.071Z,1.90
2022-10-22T12:22:32.671Z,1.95
2022-10-22T12:25:03.127Z,1.98
2022-10-22T12:27:36.196Z,1.70
2022-10-22T12:30:18.877Z,2.10
2022-10-22T12:32:47.940Z,1.67
2022-10-22T12:35:18.855Z,1.70
2022-10-22T12:40:20.761Z,1.90
2022-10-22T12:42:50.982Z,1.60
2022-10-22T12:45:19.626Z,1.50
2022-10-22T12:47:49.374Z,1.60
2022-10-22T12:50:20.130Z,1.63
2022-10-22T12:52:48.422Z,1.52
2022-10-22T12:55:17.775Z,1.45
2022-10-22T12:57:48.310Z,1.58
2022-10-22T13:00:26.125Z,1.75
2022-10-22T13:02:58.453Z,1.50
2022-10-22T13:05:28.420Z,2.08
2022-10-22T13:08:04.780Z,1.77
2022-10-22T13:10:35.038Z,1.85
2022-10-22T13:13:06.705Z,1.95
2022-10-22T13:15:38.495Z,1.75
2022-10-22T13:18:17.000Z,1.60
2022-10-22T13:20:53.376Z,1.95
2022-10-22T13:23:23.878Z,2.00
2022-10-22T13:26:00.125Z,1.98
2022-10-22T13:28:29.531Z,1.67
2022-10-22T13:30:59.626Z,2.10
2022-10-22T13:33:34.618Z,1.98
2022-10-22T13:36:02.356Z,2.10
2022-10-22T13:38:30.888Z,2.20
2022-10-22T13:40:59.260Z,1.80
2022-10-22T13:43:27.317Z,2.00
2022-10-22T13:45:58.419Z,1.73
2022-10-22T13:48:29.993Z,2.20
2022-10-22T13:50:57.766Z,2.20
2022-10-22T13:53:27.710Z,2.20
2022-10-22T13:55:55.548Z,2.33
2022-10-22T13:58:25.284Z,2.33
2022-10-22T14:00:55.722Z,2.30
2022-10-22T14:03:27.521Z,2.53
2022-10-22T14:05:57.087Z,2.45
2022-10-22T14:08:26.425Z,2.42
2022-10-22T14:10:54.445Z,2.30
2022-10-22T14:13:22.653Z,2.25
2022-10-22T14:15:52.500Z,2.15
2022-10-22T14:18:25.526Z,2.20
2022-10-22T14:20:55.069Z,2.90
2022-10-22T14:23:26.531Z,2.22
2022-10-22T14:25:54.530Z,2.78
2022-10-22T14:28:22.342Z,2.20
2022-10-22T14:30:50.932Z,2.10
2022-10-22T14:33:28.763Z,1.88
2022-10-22T14:35:59.836Z,2.65
2022-10-22T14:38:29.228Z,2.25
2022-10-22T14:40:58.066Z,2.42
2022-10-22T14:43:28.719Z,2.63
2022-10-22T14:45:56.855Z,2.40
2022-10-22T14:48:24.761Z,2.58
2022-10-22T14:50:52.679Z,2.75
2022-10-22T14:53:20.576Z,2.40
2022-10-22T14:55:51.490Z,2.45
2022-10-22T15:00:46.812Z,2.22
2022-10-22T15:03:14.677Z,2.22
2022-10-22T15:05:44.323Z,2.65
2022-10-22T15:08:13.373Z,2.28
2022-10-22T15:10:41.481Z,2.60
2022-10-22T15:13:10.626Z,2.75
2022-10-22T15:15:40.965Z,1.95
2022-10-22T15:18:08.943Z,2.58
2022-10-22T15:20:36.668Z,2.25
2022-10-22T15:23:04.588Z,2.30
2022-10-22T15:25:32.341Z,2.58
2022-10-22T15:28:02.014Z,2.92
2022-10-22T15:30:33.858Z,2.28
2022-10-22T15:33:02.811Z,2.45
2022-10-22T15:35:30.575Z,2.10
2022-10-22T15:37:58.313Z,2.03
2022-10-22T15:40:26.052Z,2.33
2022-10-22T15:42:53.821Z,2.03
2022-10-22T15:45:22.633Z,1.92
2022-10-22T15:47:51.693Z,2.75
2022-10-22T15:50:19.444Z,2.38
2022-10-22T15:52:47.179Z,2.25
2022-10-22T15:55:15.411Z,2.00
2022-10-22T15:57:43.399Z,2.50
2022-10-22T16:00:12.748Z,2.20
2022-10-22T16:02:40.541Z,2.83
2022-10-22T16:05:10.877Z,2.50
2022-10-22T16:07:38.991Z,2.45
2022-10-22T16:10:08.052Z,2.80
2022-10-22T16:12:36.726Z,2.20
2022-10-22T16:15:04.998Z,2.22
2022-10-22T16:17:32.718Z,2.00
2022-10-22T16:20:00.537Z,2.60
2022-10-22T16:22:29.682Z,2.67
2022-10-22T16:24:57.422Z,2.20
2022-10-22T16:27:25.160Z,2.30
2022-10-22T16:29:52.982Z,2.20
2022-10-22T16:32:20.749Z,2.55
2022-10-22T16:34:48.462Z,2.40
2022-10-22T16:37:16.213Z,2.50
2022-10-22T16:39:45.265Z,2.40
2022-10-22T16:42:13.007Z,2.67
2022-10-22T16:44:40.708Z,2.40
2022-10-22T16:47:08.501Z,2.50
2022-10-22T16:49:36.180Z,2.85
2022-10-22T16:52:04.040Z,2.22
2022-10-22T16:54:31.901Z,3.30
2022-10-22T16:57:01.026Z,2.40
2022-10-22T16:59:28.809Z,2.85
2022-10-22T17:01:57.396Z,3.10
2022-10-22T17:04:25.153Z,2.15
2022-10-22T17:06:52.869Z,2.60
2022-10-22T17:09:20.804Z,2.47
2022-10-22T17:11:48.658Z,2.40
2022-10-22T17:14:17.777Z,2.40
2022-10-22T17:16:48.801Z,2.50
2022-10-22T17:19:16.654Z,2.47
2022-10-22T17:21:44.457Z,2.72
2022-10-22T17:24:12.201Z,2.20
2022-10-22T17:26:39.942Z,2.58
2022-10-22T17:29:07.926Z,2.17
2022-10-22T17:31:37.969Z,2.58
2022-10-22T17:34:06.995Z,2.20
2022-10-22T17:36:36.165Z,2.75
2022-10-22T17:39:06.852Z,5.47
2022-10-22T17:41:36.758Z,4.50
2022-10-22T17:44:06.951Z,6.40
2022-10-22T17:46:34.701Z,5.82
2022-10-22T17:49:07.509Z,8.25
2022-10-22T17:51:35.410Z,7.65
2022-10-22T17:54:05.969Z,4.00
2022-10-22T17:56:37.012Z,4.95
2022-10-22T17:59:04.773Z,19.90
2022-10-22T18:01:35.644Z,12.20
2022-10-22T18:06:35.580Z,6.22
2022-10-22T18:09:05.733Z,11.32
2022-10-22T18:11:36.386Z,7.80
2022-10-22T18:14:04.985Z,8.68
2022-10-22T18:16:32.815Z,10.50
2022-10-22T18:19:01.152Z,10.02
2022-10-22T18:21:32.777Z,9.40
2022-10-22T18:24:00.555Z,6.25
2022-10-22T18:26:28.506Z,5.22
2022-10-22T18:28:56.302Z,5.10
2022-10-22T18:31:26.012Z,4.63
2022-10-22T18:36:28.076Z,5.15
2022-10-22T18:38:59.127Z,4.38
2022-10-22T18:41:27.255Z,5.35
2022-10-22T18:43:57.128Z,4.40
2022-10-22T18:46:25.203Z,4.25
2022-10-22T18:48:53.925Z,4.15
2022-10-22T18:51:22.054Z,3.65
2022-10-22T18:54:04.555Z,5.82
2022-10-22T18:56:41.493Z,6.28
2022-10-22T18:59:16.106Z,5.18
2022-10-22T19:01:43.898Z,5.93
2022-10-22T19:04:12.714Z,5.25
2022-10-22T19:06:45.065Z,5.15
2022-10-22T19:09:13.700Z,5.40
2022-10-22T20:57:07.037Z,8.88
2022-10-22T20:59:35.298Z,8.50
2022-10-22T21:02:04.882Z,8.77
2022-10-22T21:04:32.637Z,8.45
2022-10-22T21:07:00.393Z,7.97
2022-10-22T21:09:28.181Z,7.90
2022-10-22T21:11:56.906Z,7.22
2022-10-22T21:14:26.069Z,7.40
2022-10-22T21:16:53.779Z,7.55
2022-10-22T21:19:22.482Z,6.55
2022-10-22T21:21:50.444Z,8.25
2022-10-22T21:24:18.376Z,6.65
2022-10-22T21:26:46.150Z,7.25
2022-10-22T21:29:14.404Z,7.85
2022-10-22T21:31:43.470Z,7.05
2022-10-22T21:34:12.942Z,7.05
2022-10-22T21:36:40.771Z,10.25
2022-10-22T21:39:08.555Z,10.35
2022-10-22T21:41:37.746Z,10.32
2022-10-22T21:44:05.930Z,9.88
2022-10-22T21:46:33.693Z,8.05
2022-10-22T21:49:04.487Z,7.97
2022-10-22T21:51:35.074Z,8.02
2022-10-22T21:54:02.845Z,6.72
2022-10-22T21:56:33.120Z,7.20
2022-10-22T21:59:00.933Z,8.02
2022-10-22T22:01:29.267Z,7.68
2022-10-22T22:03:57.117Z,7.90
2022-10-22T22:06:30.690Z,7.97
2022-10-22T22:09:00.793Z,8.00
2022-10-22T22:11:29.690Z,8.10
2022-10-22T22:13:58.696Z,9.40
2022-10-22T22:16:29.249Z,9.65
2022-10-22T22:18:57.957Z,10.10
2022-10-22T22:21:28.027Z,9.90
2022-10-22T22:23:55.811Z,9.70
2022-10-22T22:26:28.709Z,10.02
2022-10-22T22:28:58.243Z,8.35
2022-10-22T22:31:28.529Z,7.82
2022-10-22T22:33:59.986Z,7.68
2022-10-22T22:36:29.251Z,8.45
2022-10-22T22:38:57.658Z,8.60
2022-10-22T22:41:25.544Z,8.48
2022-10-22T22:43:53.304Z,9.68
2022-10-22T22:46:21.008Z,9.32
2022-10-22T22:48:49.020Z,9.50
2022-10-22T22:51:17.309Z,9.77
2022-10-22T22:53:46.657Z,8.70
2022-10-22T22:56:16.856Z,9.90
2022-10-22T22:58:44.630Z,9.70
2022-10-22T23:01:15.674Z,10.82
2022-10-22T23:06:12.549Z,9.75
2022-10-22T23:08:40.654Z,9.73
2022-10-22T23:11:11.893Z,9.93
2022-10-22T23:13:40.748Z,8.90
2022-10-22T23:16:09.811Z,9.68
2022-10-22T23:18:37.538Z,8.85
2022-10-22T23:21:06.605Z,8.20
2022-10-22T23:23:34.572Z,8.23
2022-10-22T23:26:02.578Z,8.82
2022-10-22T23:28:31.632Z,8.52
2022-10-22T23:30:59.394Z,9.23
2022-10-22T23:33:27.666Z,9.02
2022-10-22T23:35:55.525Z,8.82
2022-10-22T23:38:23.414Z,8.40
2022-10-22T23:40:56.517Z,8.50
2022-10-22T23:43:24.330Z,9.18
2022-10-22T23:45:53.869Z,8.85
2022-10-22T23:48:22.006Z,9.25
2022-10-22T23:50:50.116Z,9.52
2022-10-22T23:53:18.078Z,8.55
2022-10-22T23:55:45.945Z,9.38
2022-10-22T23:58:13.791Z,8.52
